Liberty Center, Indiana
Current Conditions -  °F | °C
As of 6:15 AM on Sunday 23 Nov 2014 (Local Time) from KHHG Reporting Station
Light Rain Light Rain  
Wind Chill: 42°   Ceiling: 6000
Heat Index: 45°   Visibility: 10mi
Dew Point: 42°   Wind: 6mph
Humidity: 89%   Direction: 150°SSE
Pressure: 29.9"   Gusts: NA
Location:  40.7°N, 85.28°W
Report Text: KHHG 231115Z AUTO 15005KT 10SM -RA OVC060 07/06 A2990 RMK AO2 T00720055
Loading
Personal Weather Stations






























Interactive Weather Map New forecast layout! Learn more

10-Day Weather Forecast

Advertisements
Track Severe Weather on mobile